Time;durP1;ratioP1;P1;durP2;ratioP2;P2;SDS_P1;SDS_P2;PMS_P1;PMS_P2;Temp;Humidity;BMP_temperature;BMP_pressure;BME280_temperature;BME280_humidity;BME280_pressure;Samples;Min_cycle;Max_cycle;Signal;HPM_P1;HPM_P2
2023/02/08 00:00:39;;;;;;;17.75;12.73;;;-0.50;98.40;;;;;;5014357;28;20326;-73
2023/02/08 00:03:26;;;;;;;16.90;11.68;;;-0.70;98.30;;;;;;5022106;28;20632;-73
2023/02/08 00:06:12;;;;;;;14.68;10.93;;;-0.70;98.20;;;;;;5022863;28;20352;-73
2023/02/08 00:09:00;;;;;;;16.20;11.40;;;-0.50;98.30;;;;;;5022367;28;20213;-74
2023/02/08 00:11:45;;;;;;;19.73;12.77;;;-0.50;97.60;;;;;;5020627;28;20272;-73
2023/02/08 00:14:33;;;;;;;17.40;12.35;;;-0.50;97.80;;;;;;5014501;28;20305;-73
2023/02/08 00:17:18;;;;;;;17.17;11.90;;;-0.70;97.40;;;;;;5017447;28;20260;-74
2023/02/08 00:20:05;;;;;;;20.08;11.88;;;-0.60;98.00;;;;;;5021776;28;20473;-74
2023/02/08 00:22:51;;;;;;;15.73;12.07;;;-0.80;98.60;;;;;;5021416;28;20206;-73
2023/02/08 00:25:37;;;;;;;19.25;12.23;;;-0.80;98.60;;;;;;5016773;28;20225;-74
2023/02/08 00:28:23;;;;;;;15.48;11.60;;;-0.80;99.40;;;;;;5018825;28;20333;-73
2023/02/08 00:31:10;;;;;;;17.25;12.05;;;-0.90;99.20;;;;;;5012308;28;20486;-74
2023/02/08 00:33:55;;;;;;;15.70;11.70;;;-0.90;99.00;;;;;;5012632;28;20573;-73
2023/02/08 00:36:41;;;;;;;19.50;13.70;;;-0.80;99.00;;;;;;5015975;28;20210;-74
2023/02/08 00:39:27;;;;;;;16.98;12.60;;;-0.80;98.80;;;;;;5014946;28;20284;-74
2023/02/08 00:42:12;;;;;;;16.30;12.20;;;-0.80;99.10;;;;;;5016309;28;20576;-73
2023/02/08 00:44:58;;;;;;;16.88;11.45;;;-1.00;99.00;;;;;;5021281;28;20299;-74
2023/02/08 00:47:45;;;;;;;16.48;11.95;;;-1.00;98.60;;;;;;5029317;28;20201;-73
2023/02/08 00:50:31;;;;;;;14.77;11.43;;;-1.10;99.70;;;;;;5027688;28;20735;-74
2023/02/08 00:53:16;;;;;;;16.83;11.57;;;-1.30;99.90;;;;;;5022097;28;20348;-74
2023/02/08 00:56:02;;;;;;;16.27;12.35;;;-1.20;99.90;;;;;;5023064;28;20201;-73
2023/02/08 00:58:48;;;;;;;15.35;10.90;;;-1.10;99.90;;;;;;5021792;28;20225;-73
2023/02/08 01:01:34;;;;;;;17.45;12.60;;;-1.30;99.90;;;;;;5021068;28;20714;-74
2023/02/08 01:04:20;;;;;;;17.13;11.93;;;-1.30;99.90;;;;;;5015566;28;20213;-74
2023/02/08 01:07:06;;;;;;;16.40;13.07;;;-1.20;99.90;;;;;;5017165;28;20249;-74
2023/02/08 01:09:52;;;;;;;21.73;12.52;;;-1.30;99.90;;;;;;5022690;28;20336;-73
2023/02/08 01:12:38;;;;;;;14.25;10.40;;;-1.20;99.90;;;;;;5027309;28;20742;-74
2023/02/08 01:15:23;;;;;;;15.75;11.52;;;-1.20;99.90;;;;;;5022453;28;20208;-73
2023/02/08 01:18:09;;;;;;;15.40;11.85;;;-1.20;99.90;;;;;;5020550;28;20791;-74
2023/02/08 01:20:56;;;;;;;17.73;11.50;;;-1.40;99.90;;;;;;5023188;28;20220;-74
2023/02/08 01:23:42;;;;;;;19.52;12.60;;;-1.60;99.90;;;;;;5013671;28;20204;-74
2023/02/08 01:26:28;;;;;;;17.48;12.57;;;-1.60;99.90;;;;;;5019840;28;20233;-73
2023/02/08 01:29:14;;;;;;;17.38;12.65;;;-1.50;99.90;;;;;;5026881;28;20426;-73
2023/02/08 01:32:00;;;;;;;15.30;11.50;;;-1.40;99.90;;;;;;5023708;28;20221;-74
2023/02/08 01:34:45;;;;;;;13.65;11.73;;;-1.30;99.90;;;;;;5017786;28;20209;-73
2023/02/08 01:37:32;;;;;;;18.65;12.35;;;-1.40;99.90;;;;;;5025897;28;20209;-73
2023/02/08 01:40:18;;;;;;;17.35;13.35;;;-1.30;99.90;;;;;;5019470;28;20241;-73
2023/02/08 01:43:03;;;;;;;16.33;11.75;;;-1.50;99.90;;;;;;5020785;28;20284;-73
2023/02/08 01:45:49;;;;;;;16.25;12.13;;;-1.60;99.90;;;;;;5028632;28;20289;-74
2023/02/08 01:48:38;;;;;;;14.52;12.45;;;-1.60;99.90;;;;;;5029625;28;20313;-73
2023/02/08 01:51:26;;;;;;;17.42;12.00;;;-1.70;99.90;;;;;;5026042;28;20598;-73
2023/02/08 01:54:17;;;;;;;17.70;12.57;;;-1.50;99.90;;;;;;5019265;28;20201;-73
2023/02/08 01:57:03;;;;;;;15.07;12.02;;;-1.80;99.90;;;;;;5019171;28;20207;-73
2023/02/08 01:59:51;;;;;;;19.08;12.88;;;-1.80;99.90;;;;;;5023297;28;20213;-74
2023/02/08 02:02:38;;;;;;;17.38;12.95;;;-1.90;99.90;;;;;;5021770;28;20564;-73
2023/02/08 02:05:29;;;;;;;17.30;11.02;;;-1.80;99.90;;;;;;5027513;28;20221;-73
2023/02/08 02:08:15;;;;;;;17.15;12.38;;;-1.80;99.90;;;;;;5022634;28;20234;-74
2023/02/08 02:11:02;;;;;;;16.15;12.00;;;-1.70;99.90;;;;;;5022570;28;20221;-74
2023/02/08 02:13:49;;;;;;;15.48;12.13;;;-1.60;99.90;;;;;;5021841;28;20201;-73
2023/02/08 02:16:35;;;;;;;23.40;12.38;;;-1.50;99.90;;;;;;5024635;28;20205;-74
2023/02/08 02:19:31;;;;;;;21.60;12.07;;;-1.60;99.90;;;;;;5017919;28;20282;-74
2023/02/08 02:22:53;;;;;;;18.98;11.57;;;-1.50;99.90;;;;;;5013502;28;20699;-73
2023/02/08 02:26:06;;;;;;;17.13;12.20;;;-1.70;99.90;;;;;;4980713;28;20245;-73
2023/02/08 02:29:39;;;;;;;16.30;12.35;;;-1.60;99.90;;;;;;5026178;28;20197;-73
2023/02/08 02:32:41;;;;;;;12.82;10.60;;;-1.60;99.90;;;;;;4997326;28;20680;-74
2023/02/08 02:35:36;;;;;;;15.18;11.95;;;-1.80;99.90;;;;;;5019700;28;20746;-74
2023/02/08 02:38:43;;;;;;;15.20;12.15;;;-1.80;99.90;;;;;;5020979;28;20201;-73
2023/02/08 02:44:52;;;;;;;16.52;11.50;;;-2.10;99.90;;;;;;5022562;28;20213;-73
2023/02/08 02:47:47;;;;;;;17.38;12.27;;;-2.10;99.90;;;;;;5020700;28;20201;-73
2023/02/08 02:50:36;;;;;;;15.80;13.55;;;-2.20;99.90;;;;;;5018861;28;20230;-74
2023/02/08 02:53:29;;;;;;;17.33;12.30;;;-2.20;99.90;;;;;;5019935;28;20205;-73
2023/02/08 02:56:19;;;;;;;15.43;11.77;;;-2.10;99.90;;;;;;5019856;28;20715;-74
2023/02/08 02:59:07;;;;;;;19.92;11.80;;;-2.00;99.90;;;;;;5015900;28;20679;-74
2023/02/08 03:01:54;;;;;;;16.13;12.93;;;-1.80;99.90;;;;;;5018838;28;20241;-73
2023/02/08 03:04:50;;;;;;;21.40;12.50;;;-1.70;99.90;;;;;;5026242;28;20719;-73
2023/02/08 03:08:00;;;;;;;15.65;11.15;;;-1.60;99.90;;;;;;5022038;28;20233;-73
2023/02/08 03:11:00;;;;;;;18.15;11.98;;;-1.80;99.90;;;;;;5026844;28;20224;-73
2023/02/08 03:14:03;;;;;;;16.13;10.30;;;-1.60;99.90;;;;;;5022729;28;20453;-72
2023/02/08 03:17:03;;;;;;;14.95;10.55;;;-1.90;99.90;;;;;;5029751;28;20304;-73
2023/02/08 03:19:58;;;;;;;16.10;12.10;;;-1.90;99.90;;;;;;5019635;28;20340;-73
2023/02/08 03:22:51;;;;;;;16.95;13.05;;;-1.90;99.90;;;;;;5016607;28;20580;-73
2023/02/08 03:25:48;;;;;;;17.10;12.50;;;-2.00;99.90;;;;;;5018598;28;20272;-74
2023/02/08 03:28:40;;;;;;;16.40;12.23;;;-2.20;99.90;;;;;;5021988;28;20217;-73
2023/02/08 03:31:31;;;;;;;16.05;13.00;;;-2.20;99.90;;;;;;5024583;28;20721;-73
2023/02/08 03:34:23;;;;;;;16.80;13.20;;;-2.40;99.90;;;;;;5023624;28;20214;-73
2023/02/08 03:37:15;;;;;;;18.55;13.30;;;-2.20;99.90;;;;;;5020323;28;20198;-73
2023/02/08 03:40:05;;;;;;;16.90;12.75;;;-2.20;99.90;;;;;;5020897;28;20271;-74
2023/02/08 03:42:54;;;;;;;20.08;12.48;;;-2.20;99.90;;;;;;5013798;28;20738;-74
2023/02/08 03:45:46;;;;;;;16.98;12.40;;;-2.20;99.90;;;;;;5022712;28;20687;-73
2023/02/08 03:48:34;;;;;;;14.77;11.63;;;-2.30;99.90;;;;;;5018964;28;20837;-74
2023/02/08 03:51:24;;;;;;;16.40;12.65;;;-2.30;99.90;;;;;;5018643;28;20608;-74
2023/02/08 03:54:15;;;;;;;15.77;12.52;;;-2.40;99.90;;;;;;5022528;28;20206;-74
2023/02/08 03:57:06;;;;;;;18.58;11.68;;;-2.20;99.90;;;;;;5021797;28;20202;-74
2023/02/08 03:59:56;;;;;;;16.95;12.50;;;-2.20;99.90;;;;;;5021114;28;20197;-74
2023/02/08 04:02:51;;;;;;;14.82;11.90;;;-2.10;99.90;;;;;;5025028;28;20569;-73
2023/02/08 04:05:37;;;;;;;16.65;12.00;;;-2.10;99.90;;;;;;5020853;28;20209;-74
2023/02/08 04:08:23;;;;;;;17.40;12.10;;;-2.00;99.90;;;;;;5023804;28;20202;-74
2023/02/08 04:11:09;;;;;;;16.33;12.50;;;-1.90;99.90;;;;;;5020511;28;20361;-74
2023/02/08 04:13:55;;;;;;;13.45;11.30;;;-2.10;99.90;;;;;;5024620;28;20565;-74
2023/02/08 04:16:41;;;;;;;12.68;9.52;;;-2.10;99.90;;;;;;5023444;28;20585;-73
2023/02/08 04:19:27;;;;;;;18.80;11.75;;;-2.30;99.90;;;;;;5023180;28;20213;-73
2023/02/08 04:22:12;;;;;;;14.32;10.55;;;-2.30;99.90;;;;;;5013209;28;20230;-73
2023/02/08 04:24:58;;;;;;;16.30;9.77;;;-2.20;99.90;;;;;;5023009;28;20641;-74
2023/02/08 04:27:45;;;;;;;15.85;10.60;;;-2.30;99.90;;;;;;5022715;28;20634;-74
2023/02/08 04:30:31;;;;;;;14.30;11.10;;;-2.20;99.90;;;;;;5020953;28;20224;-73
2023/02/08 04:33:16;;;;;;;16.58;11.55;;;-2.20;99.90;;;;;;5027790;28;20205;-73
2023/02/08 04:36:02;;;;;;;13.85;11.07;;;-2.10;99.90;;;;;;5025614;28;20202;-74
2023/02/08 04:38:48;;;;;;;13.88;11.10;;;-2.20;99.90;;;;;;5019180;28;20214;-74
2023/02/08 04:41:33;;;;;;;15.63;10.38;;;-2.20;99.90;;;;;;5022022;28;20268;-73
2023/02/08 04:44:20;;;;;;;12.15;9.90;;;-2.10;99.90;;;;;;5024668;28;20255;-73
2023/02/08 04:47:06;;;;;;;23.35;12.48;;;-2.10;99.90;;;;;;5022586;28;20300;-73
2023/02/08 04:49:52;;;;;;;13.48;9.80;;;-2.00;99.90;;;;;;5026573;28;20206;-74
2023/02/08 04:52:38;;;;;;;15.68;10.90;;;-2.10;99.90;;;;;;5024011;28;20710;-74
2023/02/08 04:55:23;;;;;;;14.32;10.98;;;-2.10;99.90;;;;;;5015990;28;20205;-74
2023/02/08 04:58:09;;;;;;;13.85;10.93;;;-2.20;99.90;;;;;;5025383;28;20328;-74
2023/02/08 05:00:56;;;;;;;14.55;11.60;;;-2.30;99.90;;;;;;5023792;28;20222;-74
2023/02/08 05:03:42;;;;;;;16.27;11.27;;;-2.20;99.90;;;;;;5027548;28;20214;-73
2023/02/08 05:06:27;;;;;;;17.23;13.70;;;-2.40;99.90;;;;;;5027353;28;20359;-74
2023/02/08 05:09:13;;;;;;;14.60;12.23;;;-2.50;99.90;;;;;;5028458;28;20686;-73
2023/02/08 05:11:59;;;;;;;18.95;13.75;;;-2.30;99.90;;;;;;5015730;28;20353;-74
2023/02/08 05:14:45;;;;;;;14.85;12.57;;;-2.50;99.90;;;;;;5026365;28;20217;-73
2023/02/08 05:17:32;;;;;;;16.30;12.35;;;-2.30;99.90;;;;;;5022624;28;20205;-74
2023/02/08 05:20:17;;;;;;;18.00;12.32;;;-2.30;99.90;;;;;;5016128;28;20222;-74
2023/02/08 05:23:04;;;;;;;14.05;11.82;;;-2.20;99.90;;;;;;5014174;28;20205;-73
2023/02/08 05:25:50;;;;;;;13.27;11.25;;;-2.40;99.90;;;;;;5027514;28;20202;-74
2023/02/08 05:28:36;;;;;;;17.30;12.15;;;-2.40;99.90;;;;;;5029827;28;20348;-73
2023/02/08 05:31:23;;;;;;;15.00;10.75;;;-2.60;99.90;;;;;;5016871;28;20297;-73
2023/02/08 05:34:11;;;;;;;13.35;10.30;;;-2.50;99.90;;;;;;5023559;28;20307;-73
2023/02/08 05:36:56;;;;;;;12.82;10.82;;;-2.50;99.90;;;;;;5014239;28;20746;-74
2023/02/08 05:39:42;;;;;;;17.13;11.02;;;-2.30;99.90;;;;;;5013907;28;20201;-73
2023/02/08 05:42:27;;;;;;;17.90;11.95;;;-2.20;99.90;;;;;;5024209;28;20209;-73
2023/02/08 05:45:13;;;;;;;15.60;11.23;;;-2.40;99.90;;;;;;5020676;28;20206;-74
2023/02/08 05:47:58;;;;;;;16.77;12.00;;;-2.40;99.90;;;;;;5029487;28;20228;-74
2023/02/08 05:50:45;;;;;;;15.82;12.00;;;-2.40;99.90;;;;;;5022402;28;20244;-74
2023/02/08 05:53:32;;;;;;;14.23;11.40;;;-2.40;99.90;;;;;;5024306;28;20209;-73
2023/02/08 05:56:17;;;;;;;15.10;11.35;;;-2.40;99.90;;;;;;5022008;28;20432;-73
2023/02/08 05:59:03;;;;;;;15.32;11.90;;;-2.40;99.90;;;;;;5019540;28;20778;-73
2023/02/08 06:01:49;;;;;;;16.70;11.25;;;-2.40;99.90;;;;;;5025069;28;20253;-73
2023/02/08 06:04:35;;;;;;;15.57;12.25;;;-2.40;99.90;;;;;;5012540;28;20210;-73
2023/02/08 06:07:22;;;;;;;15.40;12.95;;;-2.40;99.90;;;;;;5023079;28;20222;-73
2023/02/08 06:10:08;;;;;;;16.92;11.18;;;-2.50;99.90;;;;;;5029317;28;20595;-74
2023/02/08 06:12:53;;;;;;;17.83;12.32;;;-2.40;99.90;;;;;;5028376;28;20309;-74
2023/02/08 06:15:39;;;;;;;17.50;12.60;;;-2.40;99.90;;;;;;5023082;28;20671;-74
2023/02/08 06:18:25;;;;;;;15.10;11.95;;;-2.50;99.90;;;;;;5031565;28;20727;-73
2023/02/08 06:21:11;;;;;;;15.93;11.25;;;-2.40;99.90;;;;;;5026857;28;20759;-73
2023/02/08 06:23:58;;;;;;;13.07;10.20;;;-2.40;99.90;;;;;;5014570;28;20277;-74
2023/02/08 06:26:44;;;;;;;15.13;11.52;;;-2.40;99.90;;;;;;5020446;28;20277;-74
2023/02/08 06:29:29;;;;;;;13.50;11.23;;;-2.30;99.90;;;;;;5029982;28;20309;-73
2023/02/08 06:32:15;;;;;;;18.55;11.80;;;-2.30;99.90;;;;;;5022788;28;20209;-73
2023/02/08 06:35:01;;;;;;;13.57;11.15;;;-2.30;99.90;;;;;;5033420;28;20321;-74
2023/02/08 06:37:47;;;;;;;17.40;12.32;;;-2.50;99.90;;;;;;5028544;28;20236;-73
2023/02/08 06:40:34;;;;;;;17.73;11.88;;;-2.50;99.90;;;;;;5027015;28;20225;-73
2023/02/08 06:43:19;;;;;;;17.25;11.75;;;-2.50;99.90;;;;;;5025901;28;20300;-73
2023/02/08 06:46:07;;;;;;;14.13;10.35;;;-2.60;99.90;;;;;;5020026;28;20201;-73
2023/02/08 06:48:52;;;;;;;16.85;11.35;;;-2.60;99.90;;;;;;5020622;28;20202;-73
2023/02/08 06:51:39;;;;;;;19.80;11.80;;;-2.50;99.90;;;;;;5030541;28;20221;-74
2023/02/08 06:54:24;;;;;;;16.45;12.18;;;-2.60;99.90;;;;;;5029826;28;20301;-73
2023/02/08 06:57:12;;;;;;;16.73;12.45;;;-2.60;99.90;;;;;;5016194;28;20656;-74
2023/02/08 06:59:57;;;;;;;17.83;13.05;;;-2.60;99.90;;;;;;5028256;28;20602;-74
2023/02/08 07:02:46;;;;;;;14.93;11.65;;;-2.50;99.90;;;;;;5024255;28;20213;-74
2023/02/08 07:05:34;;;;;;;16.55;12.55;;;-2.40;99.90;;;;;;5020426;28;20327;-75
2023/02/08 07:08:19;;;;;;;21.15;12.93;;;-2.20;99.90;;;;;;5020340;28;20273;-73
2023/02/08 07:11:09;;;;;;;17.05;12.50;;;-2.20;99.90;;;;;;5030451;28;20718;-73
2023/02/08 07:13:56;;;;;;;16.27;11.88;;;-2.20;99.90;;;;;;5030299;28;20206;-73
2023/02/08 07:16:42;;;;;;;16.00;10.90;;;-2.10;99.90;;;;;;5017433;28;20202;-72
2023/02/08 07:19:28;;;;;;;15.73;11.32;;;-2.10;99.90;;;;;;5026116;28;20205;-73
2023/02/08 07:22:14;;;;;;;14.43;10.63;;;-2.00;99.90;;;;;;5023244;28;20437;-73
2023/02/08 07:24:59;;;;;;;15.70;12.27;;;-2.20;99.90;;;;;;5028119;28;20880;-73
2023/02/08 07:27:45;;;;;;;14.45;11.77;;;-2.10;99.90;;;;;;5017142;28;20361;-73
2023/02/08 07:30:32;;;;;;;18.60;12.90;;;-2.00;99.90;;;;;;5027169;28;20218;-73
2023/02/08 07:33:17;;;;;;;16.42;11.57;;;-2.00;99.90;;;;;;5028031;28;20341;-72
2023/02/08 07:36:04;;;;;;;17.25;11.95;;;-2.00;99.90;;;;;;5018600;28;20336;-73
2023/02/08 07:38:49;;;;;;;18.08;12.20;;;-2.10;99.90;;;;;;5026628;28;20240;-73
2023/02/08 07:41:35;;;;;;;17.50;12.05;;;-2.20;99.90;;;;;;5022372;28;20304;-73
2023/02/08 07:44:21;;;;;;;24.65;15.70;;;-2.10;99.90;;;;;;5020952;28;20209;-73
2023/02/08 07:47:08;;;;;;;14.70;11.82;;;-2.00;99.90;;;;;;5020928;28;20217;-73
2023/02/08 07:49:53;;;;;;;17.75;13.15;;;-1.90;99.90;;;;;;5025735;28;20300;-73
2023/02/08 07:52:41;;;;;;;17.33;12.43;;;-1.90;99.90;;;;;;5016091;28;20580;-73
2023/02/08 07:55:27;;;;;;;21.35;13.32;;;-1.80;99.90;;;;;;5021677;28;20696;-73
2023/02/08 07:58:13;;;;;;;16.58;12.88;;;-1.50;99.90;;;;;;5018746;28;20332;-73
2023/02/08 08:00:59;;;;;;;19.50;12.40;;;-1.40;99.90;;;;;;5035522;28;20233;-73
2023/02/08 08:03:46;;;;;;;21.67;13.00;;;-1.30;99.90;;;;;;5024242;28;20205;-73
2023/02/08 08:06:32;;;;;;;17.50;12.50;;;-1.40;99.90;;;;;;5028083;28;20208;-73
2023/02/08 08:09:19;;;;;;;21.58;14.10;;;-1.20;99.90;;;;;;5028650;28;20201;-72
2023/02/08 08:12:05;;;;;;;21.95;15.90;;;-1.20;99.90;;;;;;5028456;28;20746;-72
2023/02/08 08:14:50;;;;;;;25.00;14.05;;;-1.10;99.90;;;;;;5031989;28;20212;-72
2023/02/08 08:17:38;;;;;;;18.77;13.52;;;-1.00;99.90;;;;;;5019418;28;20212;-72
2023/02/08 08:20:25;;;;;;;23.05;15.65;;;-0.80;99.90;;;;;;5022809;28;20388;-72
2023/02/08 08:23:10;;;;;;;17.50;12.70;;;-0.60;99.90;;;;;;5018815;28;20274;-72
2023/02/08 08:25:56;;;;;;;24.50;14.52;;;-0.40;96.60;;;;;;5030481;28;20201;-72
2023/02/08 08:28:42;;;;;;;18.88;13.23;;;-0.30;95.30;;;;;;5029193;28;20229;-72
2023/02/08 08:31:29;;;;;;;20.50;13.57;;;-0.20;96.20;;;;;;5028578;28;20221;-72
2023/02/08 08:34:14;;;;;;;21.85;13.45;;;-0.20;96.00;;;;;;5026137;28;20210;-72
2023/02/08 08:37:03;;;;;;;21.35;14.95;;;-0.20;95.80;;;;;;5019243;28;20301;-73
2023/02/08 08:39:48;;;;;;;23.27;13.70;;;-0.10;96.40;;;;;;5030287;28;20283;-73
2023/02/08 08:42:34;;;;;;;22.63;13.82;;;0.00;93.40;;;;;;5027966;28;20584;-73
2023/02/08 08:45:19;;;;;;;18.98;12.50;;;0.00;90.80;;;;;;5030720;28;20201;-73
2023/02/08 08:48:06;;;;;;;18.90;12.90;;;0.10;92.00;;;;;;5019733;28;20293;-73
2023/02/08 08:50:54;;;;;;;17.15;12.38;;;0.20;86.80;;;;;;5030495;28;20241;-73
2023/02/08 08:53:41;;;;;;;19.73;11.88;;;0.40;88.50;;;;;;5031653;28;20699;-73
2023/02/08 08:56:26;;;;;;;17.50;11.73;;;0.60;83.10;;;;;;5027942;28;20209;-73
2023/02/08 08:59:12;;;;;;;18.95;11.30;;;0.70;80.20;;;;;;5027120;28;20198;-73
2023/02/08 09:01:58;;;;;;;21.25;10.60;;;0.90;78.70;;;;;;5025144;28;20718;-73
2023/02/08 09:04:43;;;;;;;17.92;10.90;;;1.00;73.30;;;;;;5030944;28;20260;-73
2023/02/08 09:07:29;;;;;;;17.50;11.05;;;1.30;61.60;;;;;;5028931;28;20256;-73
2023/02/08 09:10:16;;;;;;;16.63;9.73;;;1.50;65.10;;;;;;5031167;28;20591;-73
2023/02/08 09:13:02;;;;;;;18.75;10.55;;;1.60;63.20;;;;;;5031512;28;20217;-73
2023/02/08 09:15:48;;;;;;;18.80;11.13;;;1.80;56.10;;;;;;5018669;28;20750;-73
2023/02/08 09:18:33;;;;;;;17.75;11.07;;;2.00;59.00;;;;;;5022736;28;20201;-73
2023/02/08 09:21:20;;;;;;;16.67;9.82;;;2.20;53.40;;;;;;5031029;28;20261;-73
2023/02/08 09:24:06;;;;;;;13.05;8.80;;;2.30;56.70;;;;;;5026099;28;20210;-73
2023/02/08 09:26:53;;;;;;;18.70;11.25;;;2.30;57.30;;;;;;5026491;28;20566;-73
2023/02/08 09:29:39;;;;;;;21.52;9.30;;;2.40;42.30;;;;;;5026339;28;20224;-73
2023/02/08 09:32:24;;;;;;;16.80;9.30;;;2.50;41.00;;;;;;5030898;28;20206;-73
2023/02/08 09:35:12;;;;;;;15.18;9.70;;;2.70;39.50;;;;;;5029587;28;20305;-73
2023/02/08 09:38:01;;;;;;;19.85;9.85;;;2.90;40.40;;;;;;5029577;28;20205;-73
2023/02/08 09:40:56;;;;;;;14.80;8.35;;;3.00;35.40;;;;;;5030634;28;20308;-73
2023/02/08 09:43:53;;;;;;;16.33;10.43;;;3.10;36.50;;;;;;5019244;28;20268;-74
2023/02/08 09:46:43;;;;;;;20.95;9.68;;;3.30;34.10;;;;;;5027718;28;20621;-73
2023/02/08 09:49:34;;;;;;;15.88;9.65;;;3.50;28.30;;;;;;5029289;28;20233;-73
2023/02/08 09:52:24;;;;;;;19.65;10.10;;;3.50;28.20;;;;;;5030919;28;20213;-73
2023/02/08 09:55:21;;;;;;;15.13;9.40;;;3.60;29.60;;;;;;5022280;28;20213;-74
2023/02/08 09:58:17;;;;;;;14.80;8.30;;;3.90;29.60;;;;;;5026900;28;20213;-74
2023/02/08 10:01:06;;;;;;;14.15;8.93;;;4.20;27.50;;;;;;5030908;28;20229;-74
2023/02/08 10:03:56;;;;;;;14.50;10.10;;;4.50;30.00;;;;;;5022782;28;20680;-73
2023/02/08 10:06:42;;;;;;;14.93;9.80;;;4.80;26.20;;;;;;5028755;28;20337;-73
2023/02/08 10:09:28;;;;;;;13.98;8.80;;;5.00;26.30;;;;;;5030311;28;20228;-73
2023/02/08 10:12:22;;;;;;;15.40;9.18;;;5.20;28.20;;;;;;5020769;28;20241;-73
2023/02/08 10:15:21;;;;;;;15.10;8.55;;;5.20;25.90;;;;;;5016525;28;20201;-74
2023/02/08 10:18:36;;;;;;;15.43;9.60;;;5.20;26.40;;;;;;5021245;28;20340;-74
2023/02/08 10:21:38;;;;;;;12.70;8.80;;;5.40;25.00;;;;;;5030361;28;20368;-74
2023/02/08 10:24:43;;;;;;;15.37;9.17;;;5.60;25.80;;;;;;5030018;28;20208;-74
2023/02/08 10:27:39;;;;;;;15.43;9.50;;;5.70;25.20;;;;;;5019321;28;20531;-73
2023/02/08 10:30:38;;;;;;;16.73;9.30;;;5.60;22.30;;;;;;5025845;28;20229;-74
2023/02/08 10:33:32;;;;;;;13.52;9.32;;;5.70;23.10;;;;;;5030693;28;20237;-74
2023/02/08 10:36:21;;;;;;;15.07;8.88;;;5.90;23.90;;;;;;5016168;28;20222;-74
2023/02/08 10:39:16;;;;;;;13.23;8.23;;;6.10;23.10;;;;;;5027435;28;20674;-74
2023/02/08 10:42:02;;;;;;;11.70;8.13;;;6.30;21.30;;;;;;5023443;28;20443;-74
2023/02/08 10:45:00;;;;;;;14.20;7.97;;;6.60;24.00;;;;;;5018795;28;20391;-73
2023/02/08 10:47:49;;;;;;;14.40;8.70;;;6.80;21.00;;;;;;5023788;28;20484;-74
2023/02/08 10:50:39;;;;;;;12.47;8.13;;;7.00;21.40;;;;;;5028587;28;20276;-74
2023/02/08 10:53:24;;;;;;;15.07;9.30;;;7.20;19.80;;;;;;5031293;28;20437;-74
2023/02/08 10:56:23;;;;;;;12.07;7.40;;;7.30;21.30;;;;;;5023973;28;20538;-74
2023/02/08 10:59:16;;;;;;;15.10;8.50;;;7.40;18.00;;;;;;5032121;28;20950;-73
2023/02/08 11:02:02;;;;;;;12.30;7.40;;;7.80;19.00;;;;;;5025572;28;20461;-74
2023/02/08 11:04:58;;;;;;;12.43;7.67;;;8.40;21.30;;;;;;5031511;28;20674;-74
2023/02/08 11:07:46;;;;;;;13.97;8.23;;;8.80;18.10;;;;;;5031889;28;20427;-74
2023/02/08 11:10:32;;;;;;;12.60;7.65;;;8.70;19.30;;;;;;5034083;28;20479;-74
2023/02/08 11:13:20;;;;;;;12.70;7.63;;;8.70;17.20;;;;;;5033817;28;20587;-74
2023/02/08 11:16:07;;;;;;;12.73;7.60;;;8.60;19.40;;;;;;5023817;28;20499;-74
2023/02/08 11:18:55;;;;;;;10.50;6.83;;;8.90;17.30;;;;;;5033777;28;20784;-73
2023/02/08 11:21:44;;;;;;;13.60;7.77;;;9.00;16.10;;;;;;5017417;28;20567;-74
2023/02/08 11:24:38;;;;;;;8.13;7.00;;;9.10;16.00;;;;;;5021267;28;20506;-73
2023/02/08 11:27:33;;;;;;;10.90;7.00;;;9.00;17.70;;;;;;5029079;28;20519;-73
2023/02/08 11:30:23;;;;;;;10.80;7.33;;;8.80;16.80;;;;;;5023191;28;20460;-74
2023/02/08 11:33:18;;;;;;;11.73;6.70;;;8.80;18.10;;;;;;5021081;28;20989;-74
2023/02/08 11:36:06;;;;;;;10.43;5.73;;;8.70;16.90;;;;;;5022324;28;20811;-73
2023/02/08 11:38:53;;;;;;;9.90;5.83;;;8.60;17.00;;;;;;5063264;22;20536;-77
2023/02/08 11:41:43;;;;;;;10.63;6.60;;;8.50;16.10;;;;;;5050851;28;20434;-76
2023/02/08 11:44:32;;;;;;;13.63;6.30;;;8.50;17.90;;;;;;5055228;28;20417;-77
2023/02/08 11:47:24;;;;;;;9.43;5.07;;;8.30;18.10;;;;;;5051640;28;20437;-77
2023/02/08 11:50:24;;;;;;;8.07;5.43;;;8.20;16.50;;;;;;5055082;28;20419;-77
2023/02/08 11:53:31;;;;;;;14.93;5.17;;;7.90;17.60;;;;;;5051763;28;21058;-77
2023/02/08 11:56:19;;;;;;;10.73;6.05;;;7.70;16.80;;;;;;5041859;28;20459;-76
2023/02/08 11:59:19;;;;;;;10.30;5.47;;;7.70;16.80;;;;;;5050302;28;20197;-77
2023/02/08 12:02:34;;;;;;;7.37;5.40;;;7.70;17.30;;;;;;5055211;28;20448;-77
2023/02/08 12:05:28;;;;;;;15.60;6.03;;;7.70;16.70;;;;;;5043540;28;20470;-76
2023/02/08 12:08:22;;;;;;;8.68;5.38;;;7.70;17.30;;;;;;5051023;28;20454;-76
2023/02/08 12:11:15;;;;;;;10.20;5.53;;;7.70;18.00;;;;;;5046098;28;20208;-76
2023/02/08 12:14:33;;;;;;;12.57;5.23;;;7.60;18.00;;;;;;5049607;28;20587;-76
2023/02/08 12:17:41;;;;;;;7.80;4.60;;;7.70;17.70;;;;;;5049890;28;20468;-76
2023/02/08 12:20:38;;;;;;;7.13;5.13;;;7.60;17.80;;;;;;5051076;28;20413;-77
2023/02/08 12:23:44;;;;;;;7.67;5.00;;;7.70;18.40;;;;;;5058708;28;20208;-76
2023/02/08 12:26:49;;;;;;;9.47;6.10;;;7.70;16.90;;;;;;5049925;28;20447;-76
2023/02/08 12:29:43;;;;;;;8.98;5.65;;;7.70;17.30;;;;;;5062890;28;20473;-76
2023/02/08 12:32:47;;;;;;;7.43;4.80;;;7.80;18.60;;;;;;5057874;28;20209;-77
2023/02/08 12:35:56;;;;;;;9.45;4.53;;;8.00;17.50;;;;;;5037467;28;20456;-76
2023/02/08 12:42:21;;;;;;;10.43;5.20;;;8.60;18.00;;;;;;5054999;28;20391;-76
2023/02/08 12:45:36;;;;;;;8.80;5.33;;;8.70;15.70;;;;;;5040571;28;20448;-76
2023/02/08 12:48:49;;;;;;;10.30;4.23;;;8.70;16.60;;;;;;5049759;28;20468;-76
2023/02/08 12:51:45;;;;;;;9.17;4.80;;;8.80;15.90;;;;;;5045852;28;21035;-75
2023/02/08 12:54:35;;;;;;;8.13;5.03;;;8.90;16.50;;;;;;5040147;28;20502;-75
2023/02/08 12:57:24;;;;;;;6.70;4.40;;;9.00;16.40;;;;;;5048366;28;20462;-75
2023/02/08 13:00:19;;;;;;;8.30;5.40;;;9.30;16.30;;;;;;5042601;28;21027;-74
2023/02/08 13:03:13;;;;;;;12.23;5.87;;;9.40;16.00;;;;;;5044960;28;20471;-75
2023/02/08 13:05:59;;;;;;;8.93;5.17;;;9.60;15.20;;;;;;5042922;28;20525;-75
2023/02/08 13:08:50;;;;;;;12.23;5.93;;;9.60;16.30;;;;;;5047201;28;20472;-75
2023/02/08 13:11:42;;;;;;;9.07;5.03;;;9.60;15.00;;;;;;5050422;28;20463;-76
2023/02/08 13:14:34;;;;;;;7.47;4.90;;;9.90;15.40;;;;;;5044580;28;20447;-74
2023/02/08 13:17:23;;;;;;;7.73;5.20;;;10.00;13.40;;;;;;5049587;28;20440;-75
2023/02/08 13:20:21;;;;;;;9.10;5.43;;;10.10;14.90;;;;;;5056632;28;20410;-75
2023/02/08 13:23:14;;;;;;;9.40;5.90;;;10.40;14.00;;;;;;5047191;28;20582;-74
2023/02/08 13:26:03;;;;;;;11.50;6.13;;;10.90;14.20;;;;;;5051362;28;20469;-74
2023/02/08 13:28:50;;;;;;;13.93;6.77;;;11.30;14.60;;;;;;5054451;28;20581;-74
2023/02/08 13:31:41;;;;;;;11.80;5.97;;;11.30;13.60;;;;;;5055023;28;20435;-74
2023/02/08 13:34:32;;;;;;;11.90;6.73;;;11.30;13.10;;;;;;5037023;28;20933;-75
2023/02/08 13:37:21;;;;;;;10.60;6.53;;;11.10;14.00;;;;;;5045945;28;20464;-75
2023/02/08 13:40:20;;;;;;;12.13;6.77;;;11.30;13.80;;;;;;5052064;28;20646;-76
2023/02/08 13:43:08;;;;;;;12.20;7.97;;;11.40;13.70;;;;;;5045135;28;20806;-76
2023/02/08 13:45:59;;;;;;;8.83;5.97;;;11.30;13.80;;;;;;5051252;28;20518;-76
2023/02/08 13:48:47;;;;;;;22.90;5.93;;;11.40;13.90;;;;;;5050513;28;20536;-76
2023/02/08 13:51:53;;;;;;;11.00;6.30;;;11.40;13.30;;;;;;5048775;28;20430;-76
2023/02/08 13:54:39;;;;;;;11.50;6.50;;;11.30;14.20;;;;;;5053113;28;20435;-77
2023/02/08 13:57:52;;;;;;;10.87;6.53;;;11.20;13.80;;;;;;5050208;28;20488;-77
2023/02/08 14:01:03;;;;;;;10.20;5.77;;;11.20;13.30;;;;;;5052250;28;22680;-76
2023/02/08 14:04:26;;;;;;;8.20;5.80;;;10.70;13.30;;;;;;5049476;28;20464;-77
2023/02/08 14:07:23;;;;;;;8.67;5.67;;;10.40;14.60;;;;;;5037405;28;20514;-77
2023/02/08 14:10:26;;;;;;;7.40;5.30;;;10.40;14.30;;;;;;5049127;28;20492;-77
2023/02/08 14:13:26;;;;;;;10.47;5.47;;;10.40;14.00;;;;;;5050200;28;20429;-77
2023/02/08 14:16:28;;;;;;;9.73;5.60;;;10.30;13.90;;;;;;5044300;28;20419;-76
2023/02/08 14:19:23;;;;;;;9.60;5.50;;;10.40;13.90;;;;;;5041179;28;20451;-77
2023/02/08 14:22:18;;;;;;;10.63;5.93;;;10.00;12.70;;;;;;5047461;28;20432;-77
2023/02/08 14:25:06;;;;;;;15.17;6.97;;;9.60;15.00;;;;;;5058021;28;20999;-77
2023/02/08 14:27:55;;;;;;;11.90;5.70;;;9.00;16.10;;;;;;5043855;28;20445;-77
2023/02/08 14:30:43;;;;;;;9.47;5.80;;;8.40;16.00;;;;;;5057418;28;20471;-77
2023/02/08 14:33:33;;;;;;;9.53;5.70;;;8.00;16.70;;;;;;5058226;28;20431;-77
2023/02/08 14:36:29;;;;;;;10.70;6.87;;;7.80;17.40;;;;;;5062523;28;20868;-77
2023/02/08 14:39:26;;;;;;;9.80;6.17;;;7.40;17.40;;;;;;5044424;28;20455;-77